| Date | Time | Temp. (oF) | Dew Point (oF) | Rel. Hum. (%) | Press. (in.) | Wind Dir. | Wind Speed (mph) | Hourly Rainfall (in.) |
|
|---|---|---|---|---|---|---|---|---|---|
| 1 | 11/12 | 00:00 | 36 | 31 | 84 | 30.37 | SSW | 0 | 0.00 |
| 2 | 11/11 | 23:00 | 36 | 30 | 80 | 30.37 | SSW | 0 | 0.00 |
| 3 | 11/11 | 22:00 | 36 | 31 | 83 | 30.36 | S | 0 | 0.00 |
| 4 | 11/11 | 21:00 | 36 | 29 | 77 | 30.35 | WNW | 0 | 0.00 |
| 5 | 11/11 | 20:00 | 39 | 28 | 67 | 30.36 | WNW | 1 | 0.00 |
| 6 | 11/11 | 19:00 | 41 | 28 | 61 | 30.35 | NNW | 1 | 0.00 |
| 7 | 11/11 | 18:00 | 42 | 29 | 60 | 30.33 | NW | 3 | 0.00 |
| 8 | 11/11 | 17:00 | 43 | 28 | 57 | 30.31 | WNW | 2 | 0.00 |
| 9 | 11/11 | 16:00 | 45 | 28 | 53 | 30.30 | WNW | 4 | 0.00 |
| 10 | 11/11 | 15:00 | 47 | 29 | 50 | 30.27 | NW | 9 | 0.00 |
| 11 | 11/11 | 14:00 | 47 | 29 | 50 | 30.28 | NNW | 7 | 0.00 |
| 12 | 11/11 | 13:00 | 46 | 28 | 51 | 30.30 | WNW | 10 | 0.00 |
| 13 | 11/11 | 12:00 | 48 | 29 | 49 | 30.32 | NNW | 6 | 0.00 |
| 14 | 11/11 | 11:00 | 46 | 30 | 54 | 30.34 | NNW | 5 | 0.00 |
| 15 | 11/11 | 10:00 | 44 | 30 | 59 | 30.34 | WNW | 10 | 0.00 |
| 16 | 11/11 | 09:00 | 41 | 28 | 62 | 30.35 | WNW | 5 | 0.00 |
| 17 | 11/11 | 08:00 | 36 | 29 | 78 | 30.34 | WSW | 2 | 0.00 |
| 18 | 11/11 | 07:00 | 32 | 25 | 78 | 30.33 | WNW | 1 | 0.00 |
| 19 | 11/11 | 06:00 | 31 | 25 | 80 | 30.31 | WSW | 3 | 0.00 |
| 20 | 11/11 | 05:00 | 31 | 25 | 79 | 30.30 | W | 1 | 0.00 |
| 21 | 11/11 | 04:00 | 33 | 24 | 72 | 30.28 | W | 1 | 0.00 |
| 22 | 11/11 | 03:00 | 35 | 25 | 68 | 30.28 | W | 1 | 0.00 |
| 23 | 11/11 | 02:00 | 36 | 25 | 65 | 30.27 | WNW | 3 | 0.00 |
| 24 | 11/11 | 01:00 | 37 | 24 | 60 | 30.26 | SW | 2 | 0.00 |